createdAt,value
2022-12-11T00:01:16.555Z,1.40
2022-12-11T00:03:47.251Z,2.00
2022-12-11T00:06:17.727Z,2.00
2022-12-11T00:08:46.632Z,1.00
2022-12-11T00:11:17.594Z,2.00
2022-12-11T00:13:46.095Z,0.00
2022-12-11T00:16:15.411Z,1.80
2022-12-11T00:18:43.846Z,1.00
2022-12-11T00:21:14.721Z,2.00
2022-12-11T00:23:43.835Z,1.00
2022-12-11T00:26:16.077Z,1.60
2022-12-11T00:28:47.178Z,1.00
2022-12-11T00:31:18.735Z,1.00
2022-12-11T00:33:49.169Z,0.60
2022-12-11T00:36:20.153Z,0.80
2022-12-11T00:38:49.143Z,0.40
2022-12-11T00:41:18.950Z,1.00
2022-12-11T00:43:49.426Z,1.00
2022-12-11T00:46:18.313Z,1.00
2022-12-11T00:48:48.626Z,1.00
2022-12-11T00:51:17.722Z,1.00
2022-12-11T00:53:46.259Z,1.80
2022-12-11T00:56:18.022Z,1.00
2022-12-11T00:58:48.620Z,1.00
2022-12-11T01:01:20.609Z,3.80
2022-12-11T01:03:49.359Z,2.00
2022-12-11T01:06:20.782Z,1.20
2022-12-11T01:09:09.684Z,1.20
2022-12-11T01:11:37.587Z,1.80
2022-12-11T01:14:07.856Z,3.00
2022-12-11T01:16:36.806Z,2.00
2022-12-11T01:19:05.322Z,0.60
2022-12-11T01:21:34.034Z,2.40
2022-12-11T01:24:02.474Z,3.20
2022-12-11T01:26:31.297Z,2.80
2022-12-11T01:29:00.242Z,2.00
2022-12-11T01:31:31.208Z,3.20
2022-12-11T01:33:59.694Z,2.00
2022-12-11T01:36:28.469Z,2.00
2022-12-11T01:38:57.628Z,2.00
2022-12-11T01:41:26.370Z,2.00
2022-12-11T01:44:03.370Z,3.20
2022-12-11T01:46:35.559Z,2.80
2022-12-11T01:49:07.201Z,2.00
2022-12-11T01:51:41.229Z,1.00
2022-12-11T01:54:14.637Z,0.00
2022-12-11T01:56:46.080Z,1.40
2022-12-11T01:59:18.919Z,3.40
2022-12-11T02:01:56.171Z,1.40
2022-12-11T02:04:25.589Z,1.00
2022-12-11T02:06:54.628Z,1.00
2022-12-11T02:09:28.919Z,2.00
2022-12-11T02:12:03.758Z,1.20
2022-12-11T02:14:40.096Z,2.00
2022-12-11T02:17:14.687Z,1.80
2022-12-11T02:19:53.211Z,1.40
2022-12-11T02:22:40.684Z,1.00
2022-12-11T02:25:21.947Z,1.00
2022-12-11T02:27:58.411Z,1.00
2022-12-11T02:30:28.764Z,4.40
2022-12-11T02:32:59.277Z,1.00
2022-12-11T02:35:33.259Z,1.00
2022-12-11T02:38:06.820Z,1.40
2022-12-11T02:40:40.338Z,2.00
2022-12-11T02:43:13.916Z,2.00
2022-12-11T02:45:47.570Z,1.40
2022-12-11T02:48:18.942Z,2.00
2022-12-11T02:50:52.576Z,2.00
2022-12-11T02:53:25.371Z,1.00
2022-12-11T02:56:00.285Z,1.00
2022-12-11T02:58:33.528Z,1.60
2022-12-11T03:01:03.499Z,1.00
2022-12-11T03:03:32.281Z,1.00
2022-12-11T03:06:01.440Z,3.20
2022-12-11T03:08:30.302Z,1.00
2022-12-11T03:10:58.924Z,1.60
2022-12-11T03:13:28.277Z,4.00
2022-12-11T03:16:12.109Z,1.00
2022-12-11T03:18:45.009Z,1.80
2022-12-11T03:21:18.324Z,2.00
2022-12-11T03:23:53.260Z,1.20
2022-12-11T03:26:24.468Z,1.60
2022-12-11T03:28:59.582Z,1.40
2022-12-11T03:31:35.916Z,1.80
2022-12-11T03:34:12.160Z,1.00
2022-12-11T03:36:41.403Z,3.60
2022-12-11T03:39:16.468Z,1.80
2022-12-11T03:41:47.483Z,3.60
2022-12-11T03:44:18.532Z,2.00
2022-12-11T03:46:51.583Z,2.00
2022-12-11T03:49:24.358Z,4.00
2022-12-11T03:51:55.727Z,4.00
2022-12-11T03:54:25.553Z,2.40
2022-12-11T03:56:58.263Z,3.20
2022-12-11T03:59:27.251Z,2.00
2022-12-11T04:01:57.165Z,2.80
2022-12-11T04:04:26.003Z,4.00
2022-12-11T04:06:54.366Z,4.60
2022-12-11T04:09:23.102Z,1.60
2022-12-11T04:11:51.582Z,2.80
2022-12-11T04:14:38.018Z,4.00
2022-12-11T04:17:07.841Z,3.60
2022-12-11T04:19:54.268Z,4.20
2022-12-11T04:22:40.260Z,4.00
2022-12-11T04:25:09.862Z,4.80
2022-12-11T04:27:50.568Z,3.60
2022-12-11T04:30:22.592Z,4.00
2022-12-11T04:32:53.628Z,4.00
2022-12-11T04:35:23.460Z,5.00
2022-12-11T04:37:53.070Z,4.40
2022-12-11T04:40:22.236Z,4.00
2022-12-11T04:42:50.807Z,4.00
2022-12-11T04:45:19.668Z,4.40
2022-12-11T04:47:48.077Z,5.00
2022-12-11T04:50:18.293Z,2.40
2022-12-11T04:52:46.816Z,5.00
2022-12-11T04:55:15.853Z,5.00
2022-12-11T04:57:44.300Z,3.20
2022-12-11T05:00:14.211Z,4.00
2022-12-11T05:02:43.707Z,2.00
2022-12-11T05:05:13.503Z,4.00
2022-12-11T05:07:43.735Z,3.60
2022-12-11T05:10:12.415Z,3.60
2022-12-11T05:12:40.879Z,1.80
2022-12-11T05:15:10.816Z,2.00
2022-12-11T05:17:39.582Z,3.60
2022-12-11T05:20:09.604Z,2.00
2022-12-11T05:22:38.757Z,2.40
2022-12-11T05:25:09.977Z,3.60
2022-12-11T05:27:38.521Z,5.20
2022-12-11T05:30:08.641Z,5.20
2022-12-11T05:32:37.102Z,5.00
2022-12-11T05:35:06.798Z,4.80
2022-12-11T05:37:35.593Z,4.00
2022-12-11T05:40:06.425Z,7.60
2022-12-11T05:42:36.535Z,5.00
2022-12-11T05:45:06.488Z,5.00
2022-12-11T05:47:34.975Z,2.00
2022-12-11T05:50:03.715Z,4.00
2022-12-11T05:52:33.383Z,5.00
2022-12-11T05:55:02.094Z,8.80
2022-12-11T05:57:30.515Z,4.00
2022-12-11T06:00:00.533Z,5.00
2022-12-11T06:02:29.005Z,3.60
2022-12-11T06:04:57.977Z,6.20
2022-12-11T06:07:26.314Z,4.80
2022-12-11T06:09:55.082Z,6.20
2022-12-11T06:12:23.490Z,6.20
2022-12-11T06:14:52.113Z,13.20
2022-12-11T06:17:21.876Z,7.40
2022-12-11T06:19:50.581Z,6.60
2022-12-11T06:22:19.084Z,5.60
2022-12-11T06:24:48.096Z,6.80
2022-12-11T06:27:16.595Z,5.20
2022-12-11T06:29:45.349Z,5.00
2022-12-11T06:32:13.849Z,7.00
2022-12-11T06:34:43.900Z,6.20
2022-12-11T06:37:12.365Z,8.00
2022-12-11T06:39:41.236Z,2.40
2022-12-11T06:42:09.560Z,8.00
2022-12-11T06:44:38.355Z,7.80
2022-12-11T06:47:06.750Z,11.00
2022-12-11T06:49:35.507Z,11.00
2022-12-11T06:52:07.007Z,10.60
2022-12-11T06:54:36.435Z,9.80
2022-12-11T06:57:05.290Z,8.20
2022-12-11T06:59:35.080Z,15.00
2022-12-11T07:02:03.542Z,13.60
2022-12-11T07:04:32.380Z,9.60
2022-12-11T07:07:01.036Z,10.00
2022-12-11T07:09:31.333Z,4.80
2022-12-11T07:11:59.779Z,15.60
2022-12-11T07:14:28.462Z,15.75
2022-12-11T07:16:57.228Z,13.00
2022-12-11T07:19:26.090Z,13.00
2022-12-11T07:21:54.722Z,12.60
2022-12-11T07:24:23.994Z,18.75
2022-12-11T07:26:54.048Z,14.00
2022-12-11T07:29:22.805Z,15.00
2022-12-11T07:31:51.258Z,10.50
2022-12-11T07:34:20.049Z,13.25
2022-12-11T07:36:48.490Z,16.25
2022-12-11T07:39:17.290Z,18.75
2022-12-11T07:41:47.068Z,17.00
2022-12-11T07:44:19.143Z,12.00
2022-12-11T07:46:47.682Z,12.00
2022-12-11T07:49:17.211Z,14.00
2022-12-11T07:51:45.699Z,13.20
2022-12-11T07:54:16.951Z,13.20
2022-12-11T07:56:52.756Z,11.20
2022-12-11T07:59:23.854Z,15.25
2022-12-11T08:01:52.302Z,15.00
2022-12-11T08:04:21.014Z,16.50
2022-12-11T08:06:49.500Z,15.50
2022-12-11T08:09:22.680Z,14.40
2022-12-11T08:11:51.567Z,14.00
2022-12-11T08:14:20.768Z,17.40
2022-12-11T08:16:50.978Z,14.00
2022-12-11T08:19:19.813Z,17.00
2022-12-11T08:21:48.177Z,14.00
2022-12-11T08:24:20.617Z,16.20
2022-12-11T08:26:49.545Z,13.00
2022-12-11T08:29:19.679Z,11.60
2022-12-11T08:31:48.235Z,14.80
2022-12-11T08:34:18.314Z,15.00
2022-12-11T08:36:46.898Z,14.40
2022-12-11T08:39:15.691Z,12.40
2022-12-11T08:41:44.132Z,22.75
2022-12-11T08:44:16.732Z,14.60
2022-12-11T08:46:45.847Z,15.00
2022-12-11T08:49:14.823Z,14.75
2022-12-11T08:51:44.600Z,15.00
2022-12-11T08:54:13.352Z,9.20
2022-12-11T08:56:41.811Z,15.00
2022-12-11T08:59:10.941Z,16.20
2022-12-11T09:01:39.505Z,16.75
2022-12-11T09:04:08.405Z,14.00
2022-12-11T09:06:36.901Z,14.25
2022-12-11T09:09:08.172Z,14.60
2022-12-11T09:11:38.645Z,13.40
2022-12-11T09:14:08.365Z,14.00
2022-12-11T09:16:40.457Z,15.00
2022-12-11T09:19:12.692Z,14.80
2022-12-11T09:21:41.985Z,15.00
2022-12-11T09:24:13.595Z,16.50
2022-12-11T09:26:42.622Z,14.40
2022-12-11T09:29:12.197Z,15.80
2022-12-11T09:31:40.669Z,18.00
2022-12-11T09:34:12.588Z,12.60
2022-12-11T09:36:42.136Z,16.80
2022-12-11T09:39:13.652Z,20.50
2022-12-11T09:41:50.887Z,17.25
2022-12-11T09:44:26.869Z,5.00
2022-12-11T09:46:55.529Z,18.00
2022-12-11T09:49:29.710Z,18.25
2022-12-11T09:52:06.062Z,15.75
2022-12-11T09:54:36.797Z,21.25
2022-12-11T09:57:19.664Z,22.00
2022-12-11T10:00:04.919Z,24.00
2022-12-11T10:02:47.769Z,20.50
2022-12-11T10:05:23.547Z,18.75
2022-12-11T10:08:00.703Z,12.00
2022-12-11T10:10:42.806Z,14.25
2022-12-11T10:13:26.085Z,15.40
2022-12-11T10:16:00.279Z,15.80
2022-12-11T10:18:30.996Z,16.00
2022-12-11T10:21:03.457Z,16.40
2022-12-11T10:23:36.608Z,14.80
2022-12-11T10:26:09.629Z,19.50
2022-12-11T10:28:38.144Z,17.00
2022-12-11T10:31:17.238Z,17.25
2022-12-11T10:33:55.924Z,18.00
2022-12-11T10:36:29.045Z,13.50
2022-12-11T10:38:57.885Z,15.00
2022-12-11T10:41:38.097Z,18.50
2022-12-11T10:44:17.559Z,18.60
2022-12-11T10:46:47.074Z,18.25
2022-12-11T10:49:24.562Z,19.25
2022-12-11T10:51:54.358Z,14.75
2022-12-11T10:54:32.286Z,15.75
2022-12-11T10:57:04.870Z,8.25
2022-12-11T10:59:39.520Z,22.00
2022-12-11T11:02:23.039Z,17.50
2022-12-11T11:04:52.888Z,17.75
2022-12-11T11:07:25.115Z,22.00
2022-12-11T11:10:07.700Z,19.75
2022-12-11T11:12:42.367Z,15.80
2022-12-11T11:15:15.311Z,13.80
2022-12-11T11:17:54.463Z,18.00
2022-12-11T11:20:25.901Z,12.00
2022-12-11T11:22:57.277Z,18.50
2022-12-11T11:25:27.291Z,20.40
2022-12-11T11:27:59.320Z,16.75
2022-12-11T11:30:30.856Z,17.60
2022-12-11T11:33:03.668Z,17.25
2022-12-11T11:35:33.264Z,18.20
2022-12-11T11:38:06.957Z,23.25
2022-12-11T11:40:40.735Z,19.00
2022-12-11T11:43:19.958Z,20.50
2022-12-11T11:45:54.895Z,13.50
2022-12-11T11:48:34.341Z,23.00
2022-12-11T11:51:14.783Z,22.00
2022-12-11T11:53:49.333Z,20.00
2022-12-11T11:56:25.280Z,18.00
2022-12-11T11:59:07.292Z,16.20
2022-12-11T12:01:35.948Z,13.25
2022-12-11T12:04:05.992Z,24.75
2022-12-11T12:07:05.581Z,17.75
2022-12-11T12:09:46.867Z,25.75
2022-12-11T12:12:29.753Z,20.75
2022-12-11T12:15:19.370Z,22.00
2022-12-11T12:17:56.116Z,22.00
2022-12-11T12:20:36.838Z,20.00
2022-12-11T12:23:24.324Z,27.25
2022-12-11T12:26:01.141Z,19.25
2022-12-11T12:28:39.493Z,18.75
2022-12-11T12:31:26.177Z,21.50
2022-12-11T12:34:05.524Z,22.25
2022-12-11T12:36:41.355Z,19.50
2022-12-11T12:39:19.458Z,20.75
2022-12-11T12:42:01.345Z,22.00
2022-12-11T12:44:43.517Z,19.50
2022-12-11T12:47:16.855Z,22.00
2022-12-11T12:49:48.027Z,20.00
2022-12-11T12:52:19.854Z,20.25
2022-12-11T12:55:05.964Z,33.25
2022-12-11T12:57:36.294Z,26.25
2022-12-11T13:00:12.545Z,22.75
2022-12-11T13:02:51.525Z,18.75
2022-12-11T13:05:26.006Z,26.50
2022-12-11T13:07:58.402Z,20.75
2022-12-11T13:10:31.390Z,23.75
2022-12-11T13:13:01.408Z,21.25
2022-12-11T13:15:42.669Z,24.75
2022-12-11T13:18:35.921Z,21.75
2022-12-11T13:21:25.423Z,23.25
2022-12-11T13:23:54.519Z,22.25
2022-12-11T13:26:30.881Z,23.50
2022-12-11T13:29:00.171Z,20.75
2022-12-11T13:31:38.228Z,24.25
2022-12-11T13:34:22.777Z,22.00
2022-12-11T13:36:54.239Z,26.00
2022-12-11T13:39:26.180Z,27.75
2022-12-11T13:41:58.789Z,22.75
2022-12-11T13:44:30.745Z,22.75
2022-12-11T13:47:01.743Z,23.50
2022-12-11T13:49:37.140Z,24.50
2022-12-11T13:52:07.313Z,28.25
2022-12-11T13:54:37.586Z,27.50
2022-12-11T13:57:18.022Z,24.75
2022-12-11T13:59:50.280Z,27.25
2022-12-11T14:02:24.020Z,21.50
2022-12-11T14:04:58.523Z,22.75
2022-12-11T14:07:30.893Z,19.00
2022-12-11T14:10:03.732Z,20.75
2022-12-11T14:12:33.960Z,23.75
2022-12-11T14:15:05.434Z,22.50
2022-12-11T14:17:36.510Z,23.75
2022-12-11T14:20:08.525Z,24.50
2022-12-11T14:22:37.275Z,22.75
2022-12-11T14:25:21.828Z,37.25
2022-12-11T14:27:52.582Z,25.75
2022-12-11T14:30:27.345Z,22.25
2022-12-11T14:32:59.466Z,22.75
2022-12-11T14:35:38.387Z,25.00
2022-12-11T14:38:17.533Z,24.50
2022-12-11T14:40:50.416Z,21.75
2022-12-11T14:43:24.669Z,23.50
2022-12-11T14:46:00.482Z,21.75
2022-12-11T14:48:34.089Z,23.75
2022-12-11T14:51:08.805Z,26.75
2022-12-11T14:53:41.573Z,27.75
2022-12-11T14:56:19.369Z,19.25
2022-12-11T14:58:53.999Z,24.50
2022-12-11T15:01:25.835Z,25.00
2022-12-11T15:04:05.763Z,24.25
2022-12-11T15:06:44.032Z,24.75
2022-12-11T15:09:25.830Z,27.75
2022-12-11T15:11:58.021Z,29.75
2022-12-11T15:14:28.020Z,26.25
2022-12-11T15:16:58.818Z,25.00
2022-12-11T15:19:31.586Z,24.25
2022-12-11T15:22:05.977Z,27.50
2022-12-11T15:24:39.438Z,32.00
2022-12-11T15:27:25.107Z,23.50
2022-12-11T15:29:53.627Z,25.00
2022-12-11T15:32:23.685Z,24.25
2022-12-11T15:34:54.038Z,30.75
2022-12-11T15:37:26.694Z,27.75
2022-12-11T15:39:56.883Z,29.50
2022-12-11T15:42:28.814Z,22.75
2022-12-11T15:44:58.194Z,22.25
2022-12-11T15:47:29.043Z,25.50
2022-12-11T15:50:00.748Z,24.75
2022-12-11T15:52:31.107Z,24.50
2022-12-11T15:54:59.551Z,27.25
2022-12-11T15:57:28.362Z,25.25
2022-12-11T15:59:57.260Z,21.00
2022-12-11T16:02:26.907Z,23.50
2022-12-11T16:04:57.692Z,19.50
2022-12-11T16:07:27.755Z,24.67
2022-12-11T16:09:57.661Z,22.50
2022-12-11T16:12:26.990Z,26.75
2022-12-11T16:14:55.372Z,22.25
2022-12-11T16:17:24.188Z,22.75
2022-12-11T16:19:54.719Z,19.00
2022-12-11T16:22:23.597Z,26.25
2022-12-11T16:24:54.784Z,20.75
2022-12-11T16:27:25.161Z,26.00
2022-12-11T16:29:53.781Z,20.25
2022-12-11T16:32:22.617Z,17.00
2022-12-11T16:34:51.272Z,29.50
2022-12-11T16:37:20.153Z,22.00
2022-12-11T16:39:48.635Z,27.50
2022-12-11T16:42:17.470Z,26.25
2022-12-11T16:44:47.507Z,22.50
2022-12-11T16:47:16.390Z,23.75
2022-12-11T16:49:45.343Z,28.50
2022-12-11T16:52:18.985Z,26.25
2022-12-11T16:54:50.481Z,21.25
2022-12-11T16:57:19.332Z,24.75
2022-12-11T16:59:49.901Z,25.00
2022-12-11T17:02:19.315Z,29.75
2022-12-11T17:04:53.635Z,27.25
2022-12-11T17:07:22.929Z,29.75
2022-12-11T17:09:51.645Z,20.25
2022-12-11T17:12:25.797Z,22.00
2022-12-11T17:14:56.154Z,26.25
2022-12-11T17:17:25.574Z,27.50
2022-12-11T17:19:54.104Z,21.50
2022-12-11T17:22:23.349Z,25.00
2022-12-11T17:24:51.974Z,19.25
2022-12-11T17:27:21.082Z,23.00
2022-12-11T17:29:50.932Z,24.75
2022-12-11T17:32:21.227Z,23.25
2022-12-11T17:34:50.548Z,24.50
2022-12-11T17:37:20.216Z,25.00
2022-12-11T17:39:48.807Z,22.00
2022-12-11T17:42:17.812Z,24.75
2022-12-11T17:44:46.587Z,25.25
2022-12-11T17:47:15.424Z,23.25
2022-12-11T17:49:45.459Z,23.25
2022-12-11T17:52:14.178Z,24.50
2022-12-11T17:54:42.963Z,28.25
2022-12-11T17:57:11.906Z,22.75
2022-12-11T17:59:40.458Z,26.25
2022-12-11T18:02:10.713Z,9.50
2022-12-11T18:04:39.690Z,26.25
2022-12-11T18:07:10.034Z,26.25
2022-12-11T18:09:40.813Z,25.00
2022-12-11T18:12:10.687Z,24.50
2022-12-11T18:14:39.326Z,21.75
2022-12-11T18:17:08.417Z,25.00
2022-12-11T18:19:40.232Z,25.50
2022-12-11T18:22:14.690Z,22.75
2022-12-11T18:24:43.206Z,24.75
2022-12-11T18:27:14.492Z,24.50
2022-12-11T18:29:43.066Z,24.00
2022-12-11T18:32:11.793Z,26.50
2022-12-11T18:34:40.287Z,24.00
2022-12-11T18:37:09.179Z,36.75
2022-12-11T18:39:39.152Z,20.25
2022-12-11T18:42:32.333Z,22.75
2022-12-11T18:44:56.951Z,20.25
2022-12-11T18:47:25.894Z,27.75
2022-12-11T18:49:55.165Z,19.50
2022-12-11T18:52:24.299Z,25.25
2022-12-11T18:54:54.233Z,24.50
2022-12-11T18:57:23.186Z,20.20
2022-12-11T18:59:53.113Z,21.25
2022-12-11T19:02:23.057Z,25.25
2022-12-11T19:04:51.606Z,24.25
2022-12-11T19:07:20.469Z,32.00
2022-12-11T19:09:49.072Z,27.25
2022-12-11T19:12:19.847Z,25.00
2022-12-11T19:14:48.871Z,26.00
2022-12-11T19:17:17.864Z,22.50
2022-12-11T19:19:47.435Z,23.00
2022-12-11T19:22:16.385Z,23.25
2022-12-11T19:24:45.147Z,29.25
2022-12-11T19:27:14.252Z,28.50
2022-12-11T19:29:44.698Z,24.75
2022-12-11T19:32:13.573Z,23.75
2022-12-11T19:34:41.980Z,25.25
2022-12-11T19:37:10.822Z,26.00
2022-12-11T19:39:40.442Z,23.75
2022-12-11T19:42:09.125Z,22.00
2022-12-11T19:44:37.812Z,26.75
2022-12-11T19:47:08.392Z,24.25
2022-12-11T19:49:37.088Z,23.00
2022-12-11T19:52:06.116Z,26.75
2022-12-11T19:54:34.647Z,26.25
2022-12-11T19:57:04.309Z,27.25
2022-12-11T19:59:33.044Z,23.50
2022-12-11T20:02:02.009Z,26.50
2022-12-11T20:04:32.366Z,23.50
2022-12-11T20:07:01.367Z,25.25
2022-12-11T20:09:30.195Z,23.00
2022-12-11T20:11:59.289Z,23.00
2022-12-11T20:14:29.103Z,25.50
2022-12-11T20:17:14.742Z,26.50
2022-12-11T20:19:45.392Z,26.00
2022-12-11T20:22:14.432Z,24.50
2022-12-11T20:24:42.907Z,25.25
2022-12-11T20:27:12.550Z,26.50
2022-12-11T20:29:41.282Z,26.50
2022-12-11T20:32:12.417Z,25.00
2022-12-11T20:34:41.354Z,29.50
2022-12-11T20:37:11.649Z,31.75
2022-12-11T20:39:40.454Z,29.50
2022-12-11T20:42:10.758Z,28.25
2022-12-11T20:44:42.811Z,27.00
2022-12-11T20:47:16.324Z,27.00
2022-12-11T20:49:45.054Z,25.75
2022-12-11T20:52:15.359Z,23.25
2022-12-11T20:54:44.115Z,24.00
2022-12-11T20:57:15.030Z,25.75
2022-12-11T20:59:44.340Z,24.25
2022-12-11T21:02:13.595Z,27.25
2022-12-11T21:04:43.722Z,27.50
2022-12-11T21:07:13.099Z,22.50
2022-12-11T21:09:43.172Z,28.00
2022-12-11T21:12:12.092Z,26.50
2022-12-11T21:14:40.955Z,25.00
2022-12-11T21:17:09.843Z,24.00
2022-12-11T21:19:40.069Z,25.00
2022-12-11T21:22:09.112Z,23.75
2022-12-11T21:24:39.036Z,25.50
2022-12-11T21:27:09.438Z,20.25
2022-12-11T21:29:38.221Z,24.25
2022-12-11T21:32:07.274Z,24.25
2022-12-11T21:34:37.785Z,27.25
2022-12-11T21:37:07.607Z,28.50
2022-12-11T21:39:39.303Z,26.75
2022-12-11T21:42:10.031Z,25.00
2022-12-11T21:47:28.851Z,27.50
2022-12-11T21:49:57.418Z,24.25
2022-12-11T21:52:26.416Z,27.25
2022-12-11T21:54:54.971Z,25.75
2022-12-11T21:57:26.820Z,22.50
2022-12-11T21:59:55.632Z,22.75
2022-12-11T22:02:24.613Z,21.00
2022-12-11T22:04:53.184Z,25.00
2022-12-11T22:07:22.005Z,26.75
2022-12-11T22:09:50.542Z,24.00
2022-12-11T22:12:25.644Z,23.00
2022-12-11T22:14:54.219Z,20.00
2022-12-11T22:17:23.465Z,22.75
2022-12-11T22:19:52.911Z,25.25
2022-12-11T22:22:21.732Z,20.50
2022-12-11T22:24:50.848Z,19.50
2022-12-11T22:27:23.628Z,21.00
2022-12-11T22:29:54.168Z,21.75
2022-12-11T22:32:23.459Z,22.50
2022-12-11T22:34:51.926Z,19.50
2022-12-11T22:37:20.829Z,20.50
2022-12-11T22:39:49.349Z,19.75
2022-12-11T22:42:18.169Z,19.75
2022-12-11T22:44:46.788Z,21.00
2022-12-11T22:47:19.197Z,21.00
2022-12-11T22:49:47.811Z,18.25
2022-12-11T22:52:16.720Z,20.25
2022-12-11T22:54:45.343Z,13.75
2022-12-11T22:57:14.906Z,23.75
2022-12-11T22:59:43.374Z,20.75
2022-12-11T23:02:12.183Z,20.20
2022-12-11T23:04:42.278Z,23.75
2022-12-11T23:07:11.122Z,19.25
2022-12-11T23:09:39.549Z,22.75
2022-12-11T23:12:08.982Z,18.25
2022-12-11T23:14:37.597Z,20.25
2022-12-11T23:17:06.555Z,22.25
2022-12-11T23:19:35.039Z,21.75
2022-12-11T23:22:05.359Z,15.50
2022-12-11T23:24:35.273Z,23.00
2022-12-11T23:27:04.136Z,23.50
2022-12-11T23:29:32.651Z,19.00
2022-12-11T23:32:01.387Z,19.25
2022-12-11T23:34:29.978Z,22.25
2022-12-11T23:36:58.835Z,23.00
2022-12-11T23:39:28.816Z,21.75
2022-12-11T23:41:57.775Z,23.50
2022-12-11T23:44:26.453Z,21.00
2022-12-11T23:46:55.368Z,17.00
2022-12-11T23:49:23.838Z,23.25
2022-12-11T23:51:52.900Z,24.25
2022-12-11T23:54:21.416Z,20.25
2022-12-11T23:56:51.503Z,24.00
2022-12-11T23:59:20.001Z,22.00
